createdAt,value
2022-09-28T00:01:21.118Z,99.90
2022-09-28T00:03:50.599Z,99.90
2022-09-28T00:06:20.826Z,99.90
2022-09-28T00:08:51.285Z,99.90
2022-09-28T00:11:21.939Z,99.90
2022-09-28T00:13:52.799Z,99.90
2022-09-28T00:16:22.749Z,99.90
2022-09-28T00:18:52.342Z,99.90
2022-09-28T00:21:28.804Z,99.90
2022-09-28T00:24:18.558Z,99.90
2022-09-28T00:26:55.230Z,99.90
2022-09-28T00:29:25.056Z,99.90
2022-09-28T00:31:54.584Z,99.90
2022-09-28T00:34:23.186Z,99.90
2022-09-28T00:36:51.778Z,99.90
2022-09-28T00:39:20.700Z,99.90
2022-09-28T00:41:49.574Z,99.90
2022-09-28T00:44:24.239Z,99.90
2022-09-28T00:46:57.900Z,99.90
2022-09-28T00:49:41.614Z,99.90
2022-09-28T00:52:11.965Z,99.90
2022-09-28T00:54:41.122Z,99.90
2022-09-28T00:57:10.165Z,99.90
2022-09-28T00:59:38.803Z,99.90
2022-09-28T01:02:07.434Z,99.90
2022-09-28T01:04:36.235Z,99.90
2022-09-28T01:07:04.739Z,99.90
2022-09-28T01:09:33.949Z,99.90
2022-09-28T01:12:02.795Z,99.90
2022-09-28T01:14:31.378Z,99.90
2022-09-28T01:17:09.563Z,99.90
2022-09-28T01:19:44.103Z,99.90
2022-09-28T01:22:13.237Z,99.90
2022-09-28T01:24:48.618Z,99.90
2022-09-28T01:27:19.471Z,99.90
2022-09-28T01:30:00.656Z,99.90
2022-09-28T01:32:29.207Z,99.90
2022-09-28T01:34:57.686Z,99.90
2022-09-28T01:37:30.292Z,99.90
2022-09-28T01:39:59.859Z,99.90
2022-09-28T01:42:30.983Z,99.90
2022-09-28T01:45:04.027Z,99.90
2022-09-28T01:47:35.503Z,99.90
2022-09-28T01:50:08.464Z,99.90
2022-09-28T01:52:42.122Z,99.90
2022-09-28T01:55:13.403Z,99.90
2022-09-28T01:57:41.940Z,99.90
2022-09-28T02:00:14.768Z,99.90
2022-09-28T02:02:51.007Z,99.90
2022-09-28T02:05:21.102Z,99.90
2022-09-28T02:07:57.125Z,99.90
2022-09-28T02:10:26.748Z,99.90
2022-09-28T02:13:07.698Z,99.90
2022-09-28T02:15:43.695Z,99.90
2022-09-28T02:18:12.550Z,99.90
2022-09-28T02:20:42.623Z,99.90
2022-09-28T02:23:11.815Z,99.90
2022-09-28T02:25:40.409Z,99.90
2022-09-28T02:28:11.854Z,99.90
2022-09-28T02:30:41.359Z,99.90
2022-09-28T02:33:12.623Z,99.90
2022-09-28T02:35:41.804Z,99.90
2022-09-28T02:38:12.267Z,99.90
2022-09-28T02:40:41.488Z,99.90
2022-09-28T02:43:13.841Z,99.90
2022-09-28T02:45:55.000Z,99.90
2022-09-28T02:48:43.661Z,99.90
2022-09-28T02:51:21.219Z,99.90
2022-09-28T02:54:08.342Z,99.90
2022-09-28T02:56:36.818Z,99.90
2022-09-28T02:59:11.649Z,99.90
2022-09-28T03:01:54.316Z,99.90
2022-09-28T03:04:28.644Z,99.90
2022-09-28T03:07:07.987Z,99.90
2022-09-28T03:09:45.966Z,99.90
2022-09-28T03:12:15.638Z,99.90
2022-09-28T03:14:44.310Z,99.90
2022-09-28T03:17:12.883Z,99.90
2022-09-28T03:19:47.797Z,99.90
2022-09-28T03:22:28.313Z,99.90
2022-09-28T03:25:01.821Z,99.90
2022-09-28T03:27:30.863Z,99.90
2022-09-28T03:29:59.475Z,99.90
2022-09-28T03:32:28.292Z,99.90
2022-09-28T03:34:57.744Z,99.90
2022-09-28T03:37:29.186Z,99.90
2022-09-28T03:40:00.616Z,99.90
2022-09-28T03:42:29.343Z,99.90
2022-09-28T03:44:58.082Z,99.90
2022-09-28T03:47:26.742Z,99.90
2022-09-28T03:49:55.412Z,99.90
2022-09-28T03:52:24.123Z,99.90
2022-09-28T03:54:52.650Z,99.90
2022-09-28T03:57:21.176Z,99.90
2022-09-28T03:59:49.850Z,99.90
2022-09-28T04:02:18.382Z,99.90
2022-09-28T04:04:47.227Z,99.90
2022-09-28T04:07:15.823Z,99.90
2022-09-28T04:09:44.472Z,99.90
2022-09-28T04:12:12.985Z,99.90
2022-09-28T04:14:41.720Z,99.90
2022-09-28T04:17:10.415Z,99.90
2022-09-28T04:19:38.965Z,99.90
2022-09-28T04:22:07.511Z,99.90
2022-09-28T04:24:36.065Z,99.90
2022-09-28T04:27:24.727Z,99.90
2022-09-28T04:29:53.278Z,99.90
2022-09-28T04:32:22.638Z,99.90
2022-09-28T04:34:52.655Z,99.90
2022-09-28T04:37:21.184Z,99.90
2022-09-28T04:39:50.076Z,99.90
2022-09-28T04:42:18.696Z,99.90
2022-09-28T04:44:47.236Z,99.90
2022-09-28T04:47:16.916Z,99.90
2022-09-28T04:49:45.467Z,99.90
2022-09-28T04:52:18.268Z,99.90
2022-09-28T04:54:47.304Z,99.90
2022-09-28T04:57:15.805Z,99.90
2022-09-28T04:59:44.325Z,99.90
2022-09-28T05:02:16.179Z,99.90
2022-09-28T05:04:44.708Z,99.90
2022-09-28T05:07:13.557Z,99.90
2022-09-28T05:09:42.131Z,99.90
2022-09-28T05:12:11.384Z,99.90
2022-09-28T05:14:39.898Z,99.90
2022-09-28T05:17:08.977Z,99.90
2022-09-28T05:19:37.893Z,99.90
2022-09-28T05:22:07.322Z,99.90
2022-09-28T05:24:35.973Z,99.90
2022-09-28T05:27:04.511Z,99.90
2022-09-28T05:29:33.025Z,99.90
2022-09-28T05:32:02.730Z,99.90
2022-09-28T05:34:31.338Z,99.90
2022-09-28T05:36:59.946Z,99.90
2022-09-28T05:39:29.411Z,99.90
2022-09-28T05:42:00.114Z,99.70
2022-09-28T05:44:29.428Z,99.80
2022-09-28T05:46:58.021Z,99.80
2022-09-28T05:49:26.560Z,99.90
2022-09-28T05:51:55.064Z,99.80
2022-09-28T05:54:23.650Z,99.90
2022-09-28T05:56:52.210Z,99.80
2022-09-28T05:59:20.748Z,99.70
2022-09-28T06:01:49.586Z,99.60
2022-09-28T06:04:18.330Z,99.70
2022-09-28T06:06:46.923Z,99.60
2022-09-28T06:09:15.478Z,99.90
2022-09-28T06:11:43.989Z,99.60
2022-09-28T06:14:14.999Z,99.20
2022-09-28T06:16:44.057Z,99.00
2022-09-28T06:19:13.114Z,99.00
2022-09-28T06:21:43.008Z,98.90
2022-09-28T06:24:11.552Z,98.70
2022-09-28T06:26:40.043Z,98.70
2022-09-28T06:29:09.081Z,98.60
2022-09-28T06:31:37.663Z,98.60
2022-09-28T06:34:06.489Z,98.40
2022-09-28T06:36:35.040Z,98.30
2022-09-28T06:39:03.565Z,97.90
2022-09-28T06:41:32.135Z,97.80
2022-09-28T06:44:00.750Z,97.50
2022-09-28T06:46:29.370Z,97.10
2022-09-28T06:48:57.990Z,97.00
2022-09-28T06:51:26.563Z,97.20
2022-09-28T06:53:55.167Z,96.60
2022-09-28T06:56:23.675Z,96.00
2022-09-28T06:58:52.363Z,96.50
2022-09-28T07:01:21.080Z,96.60
2022-09-28T07:03:52.525Z,96.40
2022-09-28T07:06:25.360Z,95.90
2022-09-28T07:09:04.153Z,96.30
2022-09-28T07:11:42.483Z,95.70
2022-09-28T07:14:21.862Z,96.50
2022-09-28T07:17:12.615Z,96.30
2022-09-28T07:19:42.707Z,96.00
2022-09-28T07:22:18.728Z,95.80
2022-09-28T07:24:49.848Z,95.90
2022-09-28T07:27:18.445Z,96.10
2022-09-28T07:29:46.947Z,95.90
2022-09-28T07:32:15.631Z,96.20
2022-09-28T07:34:46.943Z,95.40
2022-09-28T07:37:16.098Z,95.90
2022-09-28T07:40:02.754Z,95.90
2022-09-28T07:42:31.599Z,95.30
2022-09-28T07:45:00.449Z,95.70
2022-09-28T07:47:34.642Z,95.70
2022-09-28T07:50:03.726Z,95.30
2022-09-28T07:52:32.340Z,95.00
2022-09-28T07:55:04.735Z,95.20
2022-09-28T07:57:36.288Z,95.70
2022-09-28T08:00:07.340Z,95.50
2022-09-28T08:02:36.656Z,94.90
2022-09-28T08:05:05.763Z,95.50
2022-09-28T08:07:35.589Z,95.70
2022-09-28T08:10:04.213Z,96.00
2022-09-28T08:12:33.022Z,95.60
2022-09-28T08:15:01.516Z,95.90
2022-09-28T08:17:30.086Z,96.00
2022-09-28T08:20:16.496Z,96.10
2022-09-28T08:22:45.992Z,96.60
2022-09-28T08:25:14.502Z,96.70
2022-09-28T08:27:43.062Z,97.30
2022-09-28T08:30:12.016Z,97.90
2022-09-28T08:32:40.685Z,98.70
2022-09-28T08:35:09.395Z,98.80
2022-09-28T08:37:38.110Z,99.10
2022-09-28T08:40:06.882Z,99.30
2022-09-28T08:42:37.270Z,99.40
2022-09-28T08:45:16.699Z,99.90
2022-09-28T08:48:06.060Z,99.90
2022-09-28T08:50:35.459Z,99.90
2022-09-28T08:53:11.078Z,99.90
2022-09-28T08:55:41.122Z,99.90
2022-09-28T08:58:12.545Z,99.90
2022-09-28T09:00:43.898Z,99.90
2022-09-28T09:03:14.604Z,99.90
2022-09-28T09:05:58.518Z,99.90
2022-09-28T09:08:29.824Z,99.90
2022-09-28T09:11:03.055Z,99.90
2022-09-28T09:13:37.443Z,99.90
2022-09-28T09:16:11.978Z,99.90
2022-09-28T09:18:51.790Z,99.90
2022-09-28T09:21:33.995Z,99.90
2022-09-28T09:24:06.423Z,99.90
2022-09-28T09:26:41.521Z,99.90
2022-09-28T09:29:13.343Z,99.90
2022-09-28T09:32:00.806Z,99.90
2022-09-28T09:34:32.340Z,99.90
2022-09-28T09:37:08.422Z,99.90
2022-09-28T09:39:40.118Z,99.90
2022-09-28T09:42:24.740Z,99.90
2022-09-28T09:45:05.350Z,99.90
2022-09-28T09:47:38.395Z,99.90
2022-09-28T09:50:20.796Z,99.90
2022-09-28T09:52:49.392Z,99.90
2022-09-28T09:55:29.982Z,99.90
2022-09-28T09:58:10.395Z,99.90
2022-09-28T10:00:49.474Z,99.90
2022-09-28T10:03:26.406Z,99.90
2022-09-28T10:06:03.274Z,99.90
2022-09-28T10:08:34.894Z,99.90
2022-09-28T10:11:03.430Z,99.90
2022-09-28T10:13:34.010Z,99.90
2022-09-28T10:16:02.856Z,99.90
2022-09-28T10:18:31.473Z,99.90
2022-09-28T10:21:00.120Z,99.90
2022-09-28T10:23:35.147Z,99.90
2022-09-28T10:26:11.426Z,99.90
2022-09-28T10:28:44.539Z,99.90
2022-09-28T10:31:32.494Z,99.90
2022-09-28T10:34:01.023Z,99.90
2022-09-28T10:36:29.853Z,99.90
2022-09-28T10:38:59.064Z,99.90
2022-09-28T10:41:27.709Z,99.90
2022-09-28T10:44:09.964Z,99.90
2022-09-28T10:46:39.890Z,99.90
2022-09-28T10:49:14.531Z,99.90
2022-09-28T10:51:59.104Z,99.90
2022-09-28T10:54:31.710Z,99.90
2022-09-28T10:57:00.749Z,99.90
2022-09-28T10:59:32.064Z,99.90
2022-09-28T11:02:02.562Z,99.90
2022-09-28T11:04:33.743Z,99.90
2022-09-28T11:07:03.013Z,99.90
2022-09-28T11:09:33.519Z,99.90
2022-09-28T11:12:03.024Z,99.90
2022-09-28T11:14:42.376Z,99.90
2022-09-28T11:17:17.940Z,99.90
2022-09-28T11:19:47.357Z,99.90
2022-09-28T11:22:23.019Z,99.90
2022-09-28T11:24:52.011Z,99.90
2022-09-28T11:27:22.640Z,99.90
2022-09-28T11:29:57.144Z,99.90
2022-09-28T11:32:26.827Z,99.90
2022-09-28T11:35:00.168Z,99.90
2022-09-28T11:37:44.126Z,99.90
2022-09-28T11:40:12.598Z,99.90
2022-09-28T11:42:50.361Z,99.90
2022-09-28T11:45:33.895Z,99.90
2022-09-28T11:48:12.528Z,99.90
2022-09-28T11:50:49.921Z,99.90
2022-09-28T11:53:24.565Z,99.90
2022-09-28T11:56:09.169Z,99.90
2022-09-28T11:58:45.970Z,99.90
2022-09-28T12:01:19.046Z,99.90
2022-09-28T12:03:58.581Z,99.90
2022-09-28T12:06:32.868Z,99.90
2022-09-28T12:09:07.664Z,99.90
2022-09-28T12:11:39.360Z,99.90
2022-09-28T12:14:12.993Z,99.90
2022-09-28T12:17:08.452Z,99.90
2022-09-28T12:19:37.133Z,99.90
2022-09-28T12:22:11.710Z,99.90
2022-09-28T12:24:43.924Z,99.90
2022-09-28T12:27:30.702Z,99.90
2022-09-28T12:30:04.356Z,99.90
2022-09-28T12:32:33.017Z,99.90
2022-09-28T12:35:01.597Z,99.90
2022-09-28T12:37:40.246Z,99.90
2022-09-28T12:40:21.274Z,99.90
2022-09-28T12:43:01.330Z,99.90
2022-09-28T12:45:38.707Z,99.90
2022-09-28T12:48:25.578Z,99.90
2022-09-28T12:50:57.353Z,99.90
2022-09-28T12:53:44.439Z,99.90
2022-09-28T12:56:21.629Z,99.90
2022-09-28T12:58:53.603Z,99.90
2022-09-28T13:01:29.863Z,99.90
2022-09-28T13:04:10.347Z,99.90
2022-09-28T13:06:41.803Z,99.90
2022-09-28T13:09:18.350Z,99.90
2022-09-28T13:11:50.343Z,99.90
2022-09-28T13:14:21.686Z,99.90
2022-09-28T13:16:50.216Z,99.90
2022-09-28T13:19:24.119Z,99.90
2022-09-28T13:21:52.633Z,99.90
2022-09-28T13:24:32.586Z,99.90
2022-09-28T13:27:05.702Z,99.90
2022-09-28T13:29:36.203Z,99.90
2022-09-28T13:32:05.015Z,99.90
2022-09-28T13:34:34.923Z,99.90
2022-09-28T13:37:10.252Z,99.90
2022-09-28T13:39:40.239Z,99.90
2022-09-28T13:42:09.924Z,99.90
2022-09-28T13:44:56.808Z,99.90
2022-09-28T13:47:39.596Z,99.90
2022-09-28T13:50:26.797Z,99.90
2022-09-28T13:52:58.158Z,99.90
2022-09-28T13:55:34.011Z,99.90
2022-09-28T13:58:05.682Z,99.90
2022-09-28T14:00:34.181Z,99.90
2022-09-28T14:03:21.755Z,99.90
2022-09-28T14:06:10.698Z,99.90
2022-09-28T14:08:57.580Z,99.90
2022-09-28T14:11:41.805Z,99.90
2022-09-28T14:14:14.891Z,99.90
2022-09-28T14:16:43.815Z,99.90
2022-09-28T14:19:12.409Z,99.90
2022-09-28T14:21:47.944Z,99.90
2022-09-28T14:24:27.823Z,99.90
2022-09-28T14:27:25.170Z,99.90
2022-09-28T14:29:56.742Z,99.90
2022-09-28T14:32:26.208Z,99.90
2022-09-28T14:34:59.693Z,99.90
2022-09-28T14:37:47.999Z,99.90
2022-09-28T14:40:38.980Z,99.90
2022-09-28T14:43:26.026Z,99.90
2022-09-28T14:46:12.116Z,99.90
2022-09-28T14:48:51.064Z,99.90
2022-09-28T14:51:28.559Z,99.90
2022-09-28T14:54:03.689Z,99.90
2022-09-28T14:56:34.544Z,99.90
2022-09-28T14:59:03.666Z,99.90
2022-09-28T15:01:32.254Z,99.90
2022-09-28T15:04:03.280Z,99.90
2022-09-28T15:06:47.791Z,99.90
2022-09-28T15:09:33.106Z,99.90
2022-09-28T15:12:01.945Z,99.90
2022-09-28T15:14:33.061Z,99.90
2022-09-28T15:17:04.067Z,99.90
2022-09-28T15:19:45.610Z,99.90
2022-09-28T15:22:19.789Z,99.90
2022-09-28T15:25:03.906Z,99.90
2022-09-28T15:27:38.138Z,99.90
2022-09-28T15:30:25.336Z,99.90
2022-09-28T15:32:57.715Z,99.90
2022-09-28T15:35:27.514Z,99.90
2022-09-28T15:37:56.670Z,99.90
2022-09-28T15:40:26.619Z,99.90
2022-09-28T15:42:59.201Z,99.90
2022-09-28T15:45:29.910Z,99.90
2022-09-28T15:48:16.527Z,99.90
2022-09-28T15:50:58.227Z,99.90
2022-09-28T15:53:26.940Z,99.90
2022-09-28T15:56:01.591Z,99.90
2022-09-28T15:58:30.161Z,99.90
2022-09-28T16:01:17.282Z,99.90
2022-09-28T16:03:45.940Z,99.90
2022-09-28T16:06:15.426Z,99.90
2022-09-28T16:08:45.080Z,99.90
2022-09-28T16:11:21.156Z,99.90
2022-09-28T16:14:07.893Z,99.90
2022-09-28T16:16:46.813Z,99.90
2022-09-28T16:19:25.210Z,99.90
2022-09-28T16:22:01.935Z,99.90
2022-09-28T16:24:34.226Z,99.90
2022-09-28T16:27:04.220Z,99.90
2022-09-28T16:29:43.249Z,99.90
2022-09-28T16:32:27.218Z,99.90
2022-09-28T16:35:07.987Z,99.90
2022-09-28T16:37:36.559Z,99.90
2022-09-28T16:40:08.566Z,99.90
2022-09-28T16:42:37.505Z,99.90
2022-09-28T16:45:06.535Z,99.90
2022-09-28T16:47:36.042Z,99.90
2022-09-28T16:50:08.210Z,99.90
2022-09-28T16:52:59.241Z,99.90
2022-09-28T16:55:40.117Z,99.90
2022-09-28T16:58:09.445Z,99.90
2022-09-28T17:00:38.054Z,99.90
2022-09-28T17:03:14.272Z,99.90
2022-09-28T17:05:43.233Z,99.90
2022-09-28T17:08:14.499Z,99.90
2022-09-28T17:11:12.611Z,99.90
2022-09-28T17:13:37.223Z,99.90
2022-09-28T17:16:09.555Z,99.90
2022-09-28T17:18:43.452Z,99.90
2022-09-28T17:21:16.109Z,99.90
2022-09-28T17:23:45.031Z,99.90
2022-09-28T17:26:31.978Z,99.90
2022-09-28T17:29:00.999Z,99.90
2022-09-28T17:31:30.475Z,99.90
2022-09-28T17:33:59.515Z,99.90
2022-09-28T17:36:28.193Z,99.90
2022-09-28T17:38:57.669Z,99.90
2022-09-28T17:41:26.290Z,99.90
2022-09-28T17:43:54.873Z,99.90
2022-09-28T17:46:26.913Z,99.90
2022-09-28T17:48:57.776Z,99.90
2022-09-28T17:51:27.400Z,99.90
2022-09-28T17:53:57.334Z,99.90
2022-09-28T17:56:31.010Z,99.90
2022-09-28T17:59:04.174Z,99.90
2022-09-28T18:01:35.302Z,99.90
2022-09-28T18:04:05.226Z,99.90
2022-09-28T18:06:36.279Z,99.90
2022-09-28T18:09:05.367Z,99.90
2022-09-28T18:11:34.724Z,99.90
2022-09-28T18:14:10.435Z,99.90
2022-09-28T18:16:39.824Z,99.90
2022-09-28T18:19:08.621Z,99.90
2022-09-28T18:21:37.306Z,99.90
2022-09-28T18:24:05.903Z,99.90
2022-09-28T18:26:34.568Z,99.90
2022-09-28T18:29:03.148Z,99.90
2022-09-28T18:31:31.736Z,99.90
2022-09-28T18:34:03.727Z,99.90
2022-09-28T18:36:33.665Z,99.90
2022-09-28T18:39:02.661Z,99.90
2022-09-28T18:41:31.290Z,99.90
2022-09-28T18:44:02.423Z,99.90
2022-09-28T18:46:35.886Z,99.90
2022-09-28T18:49:05.279Z,99.90
2022-09-28T18:51:33.783Z,99.90
2022-09-28T18:54:07.983Z,99.90
2022-09-28T18:56:38.461Z,99.90
2022-09-28T18:59:11.915Z,99.90
2022-09-28T19:01:42.664Z,99.90
2022-09-28T19:04:12.222Z,99.90
2022-09-28T19:06:45.678Z,99.90
2022-09-28T19:09:14.373Z,99.90
2022-09-28T19:11:42.926Z,99.90
2022-09-28T19:14:12.263Z,99.90
2022-09-28T19:16:40.822Z,99.90
2022-09-28T19:19:10.088Z,99.90
2022-09-28T19:21:38.670Z,99.90
2022-09-28T19:24:07.320Z,99.90
2022-09-28T19:26:35.944Z,99.90
2022-09-28T19:29:04.563Z,99.90
2022-09-28T19:31:33.739Z,99.90
2022-09-28T19:34:02.349Z,99.90
2022-09-28T19:36:31.373Z,99.90
2022-09-28T19:39:03.777Z,99.90
2022-09-28T19:41:44.808Z,99.90
2022-09-28T19:44:27.990Z,99.90
2022-09-28T19:47:07.813Z,99.90
2022-09-28T19:49:39.070Z,99.90
2022-09-28T19:52:17.295Z,99.90
2022-09-28T19:54:47.019Z,99.90
2022-09-28T19:57:16.789Z,99.90
2022-09-28T19:59:48.361Z,99.90
2022-09-28T20:02:19.407Z,99.90
2022-09-28T20:04:48.009Z,99.90
2022-09-28T20:07:16.578Z,99.90
2022-09-28T20:09:45.214Z,99.90
2022-09-28T20:12:13.735Z,99.90
2022-09-28T20:14:42.323Z,99.90
2022-09-28T20:17:10.909Z,99.90
2022-09-28T20:19:39.552Z,99.90
2022-09-28T20:22:08.059Z,99.90
2022-09-28T20:24:36.641Z,99.90
2022-09-28T20:27:05.168Z,99.90
2022-09-28T20:29:34.291Z,99.90
2022-09-28T20:32:03.327Z,99.90
2022-09-28T20:34:31.811Z,99.90
2022-09-28T20:37:00.430Z,99.90
2022-09-28T20:39:29.000Z,99.90
2022-09-28T20:41:58.513Z,99.90
2022-09-28T20:44:27.010Z,99.90
2022-09-28T20:46:55.775Z,99.90
2022-09-28T20:49:24.291Z,99.90
2022-09-28T20:51:52.808Z,99.90
2022-09-28T20:54:22.112Z,99.90
2022-09-28T20:56:50.680Z,99.90
2022-09-28T20:59:19.171Z,99.90
2022-09-28T21:01:47.953Z,99.90
2022-09-28T21:04:16.621Z,99.90
2022-09-28T21:06:45.294Z,99.90
2022-09-28T21:09:13.897Z,99.90
2022-09-28T21:11:42.632Z,99.90
2022-09-28T21:14:11.327Z,99.90
2022-09-28T21:16:40.104Z,99.90
2022-09-28T21:19:08.637Z,99.90
2022-09-28T21:21:37.216Z,99.90
2022-09-28T21:24:08.901Z,99.90
2022-09-28T21:26:37.533Z,99.90
2022-09-28T21:29:12.921Z,99.90
2022-09-28T21:31:41.546Z,99.90
2022-09-28T21:34:20.371Z,99.90
2022-09-28T21:36:52.071Z,99.90
2022-09-28T21:39:21.492Z,99.90
2022-09-28T21:41:50.023Z,99.90
2022-09-28T21:44:18.781Z,99.90
2022-09-28T21:46:47.458Z,99.90
2022-09-28T21:49:16.050Z,99.90
2022-09-28T21:51:44.586Z,99.90
2022-09-28T21:54:13.227Z,99.90
2022-09-28T21:56:41.880Z,99.90
2022-09-28T21:59:10.383Z,99.90
2022-09-28T22:01:39.011Z,99.90
2022-09-28T22:04:07.650Z,99.90
2022-09-28T22:06:36.541Z,99.90
2022-09-28T22:09:06.681Z,99.90
2022-09-28T22:11:35.202Z,99.90
2022-09-28T22:14:03.714Z,99.90
2022-09-28T22:16:32.533Z,99.90
2022-09-28T22:19:01.086Z,99.90
2022-09-28T22:21:31.070Z,99.90
2022-09-28T22:24:01.969Z,99.90
2022-09-28T22:26:31.504Z,99.90
2022-09-28T22:29:01.083Z,99.90
2022-09-28T22:31:31.075Z,99.90
2022-09-28T22:34:00.032Z,99.90
2022-09-28T22:36:28.594Z,99.90
2022-09-28T22:38:57.830Z,99.90
2022-09-28T22:41:26.466Z,99.90
2022-09-28T22:43:55.708Z,99.90
2022-09-28T22:46:26.223Z,99.90
2022-09-28T22:48:55.936Z,99.90
2022-09-28T22:51:25.110Z,99.90
2022-09-28T22:53:53.730Z,99.90
2022-09-28T22:56:22.214Z,99.90
2022-09-28T22:58:50.721Z,99.90
2022-09-28T23:01:23.690Z,99.90
2022-09-28T23:03:52.929Z,99.90
2022-09-28T23:06:22.616Z,99.90
2022-09-28T23:08:51.661Z,99.90
2022-09-28T23:11:20.548Z,99.90
2022-09-28T23:13:53.942Z,99.90
2022-09-28T23:16:24.521Z,99.90
2022-09-28T23:18:53.634Z,99.90
2022-09-28T23:21:23.818Z,99.90
2022-09-28T23:23:55.043Z,99.90
2022-09-28T23:26:25.121Z,99.90
2022-09-28T23:28:54.338Z,99.90
2022-09-28T23:31:27.017Z,99.90
2022-09-28T23:33:59.546Z,99.90
2022-09-28T23:36:28.565Z,99.90
2022-09-28T23:38:57.059Z,99.90
2022-09-28T23:41:25.626Z,99.90
2022-09-28T23:43:54.270Z,99.90
2022-09-28T23:46:24.934Z,99.90
2022-09-28T23:48:53.583Z,99.90
2022-09-28T23:51:22.153Z,99.90
2022-09-28T23:53:50.696Z,99.90
2022-09-28T23:56:19.280Z,99.90
2022-09-28T23:58:47.867Z,99.90
